sensor_id;sensor_type;location;lat;lon;timestamp;pressure;altitude;pressure_sealevel;temperature;humidity
39954;BME280;25631;51.516;-0.470;2023-03-16T00:02:21;100838.07;;;5.53;47.91
39954;BME280;25631;51.516;-0.470;2023-03-16T00:04:57;100832.96;;;5.85;47.79
39954;BME280;25631;51.516;-0.470;2023-03-16T00:07:34;100832.42;;;5.58;48.10
39954;BME280;25631;51.516;-0.470;2023-03-16T00:10:12;100829.23;;;5.83;48.22
39954;BME280;25631;51.516;-0.470;2023-03-16T00:12:48;100826.62;;;5.70;48.20
39954;BME280;25631;51.516;-0.470;2023-03-16T00:15:25;100829.83;;;5.91;48.14
39954;BME280;25631;51.516;-0.470;2023-03-16T00:18:02;100828.57;;;5.92;48.21
39954;BME280;25631;51.516;-0.470;2023-03-16T00:20:39;100827.15;;;5.79;48.30
39954;BME280;25631;51.516;-0.470;2023-03-16T00:23:15;100822.71;;;5.91;48.18
39954;BME280;25631;51.516;-0.470;2023-03-16T00:25:52;100819.18;;;5.76;48.31
39954;BME280;25631;51.516;-0.470;2023-03-16T00:28:30;100814.82;;;6.01;48.38
39954;BME280;25631;51.516;-0.470;2023-03-16T00:31:09;100811.12;;;5.98;48.29
39954;BME280;25631;51.516;-0.470;2023-03-16T00:33:45;100808.58;;;5.93;48.27
39954;BME280;25631;51.516;-0.470;2023-03-16T00:36:22;100801.97;;;5.94;48.41
39954;BME280;25631;51.516;-0.470;2023-03-16T00:38:58;100795.57;;;5.96;48.46
39954;BME280;25631;51.516;-0.470;2023-03-16T00:41:35;100785.34;;;6.02;48.38
39954;BME280;25631;51.516;-0.470;2023-03-16T00:44:11;100783.24;;;6.13;48.32
39954;BME280;25631;51.516;-0.470;2023-03-16T00:46:48;100781.56;;;6.00;48.40
39954;BME280;25631;51.516;-0.470;2023-03-16T00:49:25;100771.85;;;6.04;48.36
39954;BME280;25631;51.516;-0.470;2023-03-16T00:52:01;100768.14;;;6.03;48.33
39954;BME280;25631;51.516;-0.470;2023-03-16T00:54:38;100759.22;;;6.09;48.57
39954;BME280;25631;51.516;-0.470;2023-03-16T00:57:16;100754.37;;;6.15;48.52
39954;BME280;25631;51.516;-0.470;2023-03-16T00:59:53;100743.83;;;6.15;48.53
39954;BME280;25631;51.516;-0.470;2023-03-16T01:02:29;100736.45;;;6.07;48.57
39954;BME280;25631;51.516;-0.470;2023-03-16T01:05:07;100736.27;;;6.09;48.45
39954;BME280;25631;51.516;-0.470;2023-03-16T01:07:44;100739.60;;;6.18;48.52
39954;BME280;25631;51.516;-0.470;2023-03-16T01:10:20;100744.60;;;6.21;48.63
39954;BME280;25631;51.516;-0.470;2023-03-16T01:12:57;100739.60;;;6.28;48.60
39954;BME280;25631;51.516;-0.470;2023-03-16T01:15:33;100738.58;;;6.14;48.68
39954;BME280;25631;51.516;-0.470;2023-03-16T01:18:10;100731.01;;;6.29;48.53
39954;BME280;25631;51.516;-0.470;2023-03-16T01:20:47;100722.69;;;6.25;48.51
39954;BME280;25631;51.516;-0.470;2023-03-16T01:23:23;100714.72;;;6.51;48.48
39954;BME280;25631;51.516;-0.470;2023-03-16T01:26:00;100710.58;;;6.30;48.52
39954;BME280;25631;51.516;-0.470;2023-03-16T01:28:37;100706.68;;;6.52;48.43
39954;BME280;25631;51.516;-0.470;2023-03-16T01:31:15;100698.42;;;6.24;48.39
39954;BME280;25631;51.516;-0.470;2023-03-16T01:33:52;100699.31;;;6.25;48.33
39954;BME280;25631;51.516;-0.470;2023-03-16T01:36:29;100702.13;;;6.57;48.22
39954;BME280;25631;51.516;-0.470;2023-03-16T01:39:05;100693.04;;;6.32;48.23
39954;BME280;25631;51.516;-0.470;2023-03-16T01:41:43;100687.57;;;6.49;48.30
39954;BME280;25631;51.516;-0.470;2023-03-16T01:44:21;100678.05;;;6.73;48.31
39954;BME280;25631;51.516;-0.470;2023-03-16T01:46:58;100675.48;;;6.79;48.29
39954;BME280;25631;51.516;-0.470;2023-03-16T01:49:35;100671.34;;;6.41;48.42
39954;BME280;25631;51.516;-0.470;2023-03-16T01:52:17;100667.89;;;6.44;48.53
39954;BME280;25631;51.516;-0.470;2023-03-16T01:54:57;100665.41;;;6.41;48.53
39954;BME280;25631;51.516;-0.470;2023-03-16T01:57:38;100664.12;;;6.62;48.45
39954;BME280;25631;51.516;-0.470;2023-03-16T02:00:18;100660.21;;;6.52;48.51
39954;BME280;25631;51.516;-0.470;2023-03-16T02:00:22;100659.89;;;6.52;48.51
39954;BME280;25631;51.516;-0.470;2023-03-16T02:03:04;100650.81;;;6.74;48.55
39954;BME280;25631;51.516;-0.470;2023-03-16T02:05:44;100651.17;;;6.68;48.54
39954;BME280;25631;51.516;-0.470;2023-03-16T02:08:26;100642.73;;;7.00;48.60
39954;BME280;25631;51.516;-0.470;2023-03-16T02:11:03;100635.11;;;6.89;48.55
39954;BME280;25631;51.516;-0.470;2023-03-16T02:13:40;100633.27;;;7.01;48.49
39954;BME280;25631;51.516;-0.470;2023-03-16T02:16:18;100625.42;;;6.93;48.70
39954;BME280;25631;51.516;-0.470;2023-03-16T02:18:55;100627.65;;;6.77;48.93
39954;BME280;25631;51.516;-0.470;2023-03-16T02:21:34;100628.94;;;6.87;49.14
39954;BME280;25631;51.516;-0.470;2023-03-16T02:24:16;100631.06;;;6.64;49.38
39954;BME280;25631;51.516;-0.470;2023-03-16T02:26:55;100627.80;;;6.42;49.49
39954;BME280;25631;51.516;-0.470;2023-03-16T02:30:07;100619.12;;;6.67;49.59
39954;BME280;25631;51.516;-0.470;2023-03-16T02:32:48;100623.32;;;6.50;49.84
39954;BME280;25631;51.516;-0.470;2023-03-16T02:35:25;100622.83;;;6.85;49.89
39954;BME280;25631;51.516;-0.470;2023-03-16T02:38:02;100619.14;;;6.58;50.00
39954;BME280;25631;51.516;-0.470;2023-03-16T02:40:39;100616.63;;;6.71;50.23
39954;BME280;25631;51.516;-0.470;2023-03-16T02:43:19;100599.54;;;6.42;50.02
39954;BME280;25631;51.516;-0.470;2023-03-16T02:45:59;100593.18;;;6.60;50.40
39954;BME280;25631;51.516;-0.470;2023-03-16T02:48:44;100586.28;;;6.43;50.37
39954;BME280;25631;51.516;-0.470;2023-03-16T02:51:23;100589.64;;;6.72;50.24
39954;BME280;25631;51.516;-0.470;2023-03-16T02:54:00;100584.71;;;6.53;50.52
39954;BME280;25631;51.516;-0.470;2023-03-16T02:56:36;100586.43;;;6.60;50.62
39954;BME280;25631;51.516;-0.470;2023-03-16T02:59:13;100583.64;;;6.35;50.70
39954;BME280;25631;51.516;-0.470;2023-03-16T03:01:49;100581.07;;;6.60;50.80
39954;BME280;25631;51.516;-0.470;2023-03-16T03:04:26;100571.97;;;6.73;50.70
39954;BME280;25631;51.516;-0.470;2023-03-16T03:07:03;100567.36;;;6.36;50.92
39954;BME280;25631;51.516;-0.470;2023-03-16T03:09:39;100564.59;;;6.76;50.97
39954;BME280;25631;51.516;-0.470;2023-03-16T03:12:16;100562.34;;;6.75;51.03
39954;BME280;25631;51.516;-0.470;2023-03-16T03:14:52;100568.77;;;6.67;50.90
39954;BME280;25631;51.516;-0.470;2023-03-16T03:17:29;100566.03;;;7.05;50.64
39954;BME280;25631;51.516;-0.470;2023-03-16T03:20:06;100567.09;;;6.80;50.59
39954;BME280;25631;51.516;-0.470;2023-03-16T03:22:43;100563.36;;;7.13;50.58
39954;BME280;25631;51.516;-0.470;2023-03-16T03:25:21;100558.12;;;6.71;50.62
39954;BME280;25631;51.516;-0.470;2023-03-16T03:27:58;100559.50;;;7.02;50.68
39954;BME280;25631;51.516;-0.470;2023-03-16T03:30:34;100558.69;;;7.15;50.70
39954;BME280;25631;51.516;-0.470;2023-03-16T03:33:11;100559.75;;;6.70;51.00
39954;BME280;25631;51.516;-0.470;2023-03-16T03:35:53;100556.89;;;6.80;51.04
39954;BME280;25631;51.516;-0.470;2023-03-16T03:38:29;100559.16;;;6.77;51.19
39954;BME280;25631;51.516;-0.470;2023-03-16T03:41:06;100559.12;;;6.67;51.28
39954;BME280;25631;51.516;-0.470;2023-03-16T03:43:43;100559.90;;;6.59;51.71
39954;BME280;25631;51.516;-0.470;2023-03-16T03:46:20;100560.00;;;6.47;51.61
39954;BME280;25631;51.516;-0.470;2023-03-16T03:48:56;100559.51;;;6.88;51.69
39954;BME280;25631;51.516;-0.470;2023-03-16T03:51:33;100553.20;;;6.89;51.52
39954;BME280;25631;51.516;-0.470;2023-03-16T03:54:10;100552.62;;;6.76;51.59
39954;BME280;25631;51.516;-0.470;2023-03-16T03:56:46;100552.79;;;6.94;51.50
39954;BME280;25631;51.516;-0.470;2023-03-16T03:59:23;100553.00;;;6.96;51.36
39954;BME280;25631;51.516;-0.470;2023-03-16T04:01:59;100555.39;;;6.87;51.20
39954;BME280;25631;51.516;-0.470;2023-03-16T04:04:36;100553.11;;;6.88;51.32
39954;BME280;25631;51.516;-0.470;2023-03-16T04:07:12;100552.13;;;7.10;51.05
39954;BME280;25631;51.516;-0.470;2023-03-16T04:09:49;100546.77;;;7.11;50.91
39954;BME280;25631;51.516;-0.470;2023-03-16T04:12:25;100552.69;;;6.92;50.99
39954;BME280;25631;51.516;-0.470;2023-03-16T04:15:02;100548.75;;;6.86;51.08
39954;BME280;25631;51.516;-0.470;2023-03-16T04:17:39;100544.89;;;6.53;51.23
39954;BME280;25631;51.516;-0.470;2023-03-16T04:20:15;100539.06;;;6.83;51.25
39954;BME280;25631;51.516;-0.470;2023-03-16T04:22:52;100541.18;;;6.78;51.18
39954;BME280;25631;51.516;-0.470;2023-03-16T04:25:29;100546.26;;;6.94;51.23
39954;BME280;25631;51.516;-0.470;2023-03-16T04:28:05;100544.18;;;6.82;51.17
39954;BME280;25631;51.516;-0.470;2023-03-16T04:30:42;100543.94;;;6.60;51.18
39954;BME280;25631;51.516;-0.470;2023-03-16T04:33:19;100540.31;;;7.16;50.93
39954;BME280;25631;51.516;-0.470;2023-03-16T04:35:55;100541.57;;;6.93;50.82
39954;BME280;25631;51.516;-0.470;2023-03-16T04:38:32;100542.34;;;6.96;50.89
39954;BME280;25631;51.516;-0.470;2023-03-16T04:41:09;100544.08;;;6.94;51.36
39954;BME280;25631;51.516;-0.470;2023-03-16T04:43:45;100537.43;;;6.61;51.35
39954;BME280;25631;51.516;-0.470;2023-03-16T04:46:22;100539.11;;;6.72;51.39
39954;BME280;25631;51.516;-0.470;2023-03-16T04:48:59;100534.00;;;6.79;51.31
39954;BME280;25631;51.516;-0.470;2023-03-16T04:51:35;100530.95;;;7.02;51.36
39954;BME280;25631;51.516;-0.470;2023-03-16T04:54:12;100528.58;;;6.90;51.35
39954;BME280;25631;51.516;-0.470;2023-03-16T04:56:48;100522.00;;;6.82;51.16
39954;BME280;25631;51.516;-0.470;2023-03-16T04:59:26;100522.91;;;6.86;51.05
39954;BME280;25631;51.516;-0.470;2023-03-16T05:02:02;100520.81;;;6.77;50.83
39954;BME280;25631;51.516;-0.470;2023-03-16T05:04:40;100521.20;;;7.29;50.85
39954;BME280;25631;51.516;-0.470;2023-03-16T05:07:16;100516.92;;;7.14;50.66
39954;BME280;25631;51.516;-0.470;2023-03-16T05:09:53;100511.89;;;7.15;50.51
39954;BME280;25631;51.516;-0.470;2023-03-16T05:12:29;100511.51;;;6.76;50.50
39954;BME280;25631;51.516;-0.470;2023-03-16T05:15:07;100514.37;;;6.88;50.45
39954;BME280;25631;51.516;-0.470;2023-03-16T05:17:44;100513.38;;;6.67;50.49
39954;BME280;25631;51.516;-0.470;2023-03-16T05:20:21;100518.98;;;6.80;50.45
39954;BME280;25631;51.516;-0.470;2023-03-16T05:22:57;100521.22;;;7.29;50.25
39954;BME280;25631;51.516;-0.470;2023-03-16T05:25:33;100515.03;;;7.00;50.36
39954;BME280;25631;51.516;-0.470;2023-03-16T05:28:10;100509.21;;;7.05;50.29
39954;BME280;25631;51.516;-0.470;2023-03-16T05:30:46;100508.45;;;6.81;50.30
39954;BME280;25631;51.516;-0.470;2023-03-16T05:33:23;100512.77;;;7.05;50.16
39954;BME280;25631;51.516;-0.470;2023-03-16T05:36:00;100503.57;;;7.07;50.16
39954;BME280;25631;51.516;-0.470;2023-03-16T05:38:37;100508.80;;;7.19;50.00
39954;BME280;25631;51.516;-0.470;2023-03-16T05:41:13;100511.29;;;6.78;50.03
39954;BME280;25631;51.516;-0.470;2023-03-16T05:43:50;100510.99;;;6.84;50.06
39954;BME280;25631;51.516;-0.470;2023-03-16T05:46:26;100505.90;;;6.97;50.11
39954;BME280;25631;51.516;-0.470;2023-03-16T05:49:03;100501.84;;;6.75;49.88
39954;BME280;25631;51.516;-0.470;2023-03-16T05:51:39;100503.68;;;7.08;49.95
39954;BME280;25631;51.516;-0.470;2023-03-16T05:54:16;100510.42;;;7.29;49.92
39954;BME280;25631;51.516;-0.470;2023-03-16T05:56:52;100508.74;;;6.88;49.86
39954;BME280;25631;51.516;-0.470;2023-03-16T05:59:29;100501.89;;;6.87;49.86
39954;BME280;25631;51.516;-0.470;2023-03-16T06:02:05;100505.24;;;6.85;49.78
39954;BME280;25631;51.516;-0.470;2023-03-16T06:04:42;100501.58;;;6.96;49.76
39954;BME280;25631;51.516;-0.470;2023-03-16T06:07:19;100505.62;;;7.11;49.62
39954;BME280;25631;51.516;-0.470;2023-03-16T06:09:55;100500.59;;;6.95;49.57
39954;BME280;25631;51.516;-0.470;2023-03-16T06:12:32;100501.43;;;7.06;49.57
39954;BME280;25631;51.516;-0.470;2023-03-16T06:15:09;100507.94;;;7.20;49.67
39954;BME280;25631;51.516;-0.470;2023-03-16T06:17:46;100504.94;;;7.09;49.69
39954;BME280;25631;51.516;-0.470;2023-03-16T06:20:22;100504.30;;;7.04;49.62
39954;BME280;25631;51.516;-0.470;2023-03-16T06:22:59;100504.32;;;6.76;49.61
39954;BME280;25631;51.516;-0.470;2023-03-16T06:25:35;100504.16;;;7.04;49.50
39954;BME280;25631;51.516;-0.470;2023-03-16T06:28:12;100502.05;;;7.19;49.52
39954;BME280;25631;51.516;-0.470;2023-03-16T06:30:52;100501.83;;;7.06;49.56
39954;BME280;25631;51.516;-0.470;2023-03-16T06:33:29;100500.13;;;6.99;49.51
39954;BME280;25631;51.516;-0.470;2023-03-16T06:36:06;100504.14;;;6.75;49.74
39954;BME280;25631;51.516;-0.470;2023-03-16T06:38:43;100506.36;;;7.06;49.64
39954;BME280;25631;51.516;-0.470;2023-03-16T06:41:20;100511.86;;;6.99;49.58
39954;BME280;25631;51.516;-0.470;2023-03-16T06:43:57;100509.34;;;7.27;49.50
39954;BME280;25631;51.516;-0.470;2023-03-16T06:46:33;100508.00;;;7.23;49.50
39954;BME280;25631;51.516;-0.470;2023-03-16T06:49:15;100515.20;;;7.18;49.36
39954;BME280;25631;51.516;-0.470;2023-03-16T06:51:51;100512.26;;;7.19;49.33
39954;BME280;25631;51.516;-0.470;2023-03-16T06:54:28;100516.12;;;7.40;49.21
39954;BME280;25631;51.516;-0.470;2023-03-16T06:57:04;100515.51;;;7.38;49.04
39954;BME280;25631;51.516;-0.470;2023-03-16T06:59:41;100513.33;;;7.34;49.05
39954;BME280;25631;51.516;-0.470;2023-03-16T07:02:17;100510.47;;;7.21;49.05
39954;BME280;25631;51.516;-0.470;2023-03-16T07:04:54;100500.69;;;7.41;48.98
39954;BME280;25631;51.516;-0.470;2023-03-16T07:07:30;100489.93;;;7.43;48.94
39954;BME280;25631;51.516;-0.470;2023-03-16T07:10:09;100485.90;;;7.87;48.92
39954;BME280;25631;51.516;-0.470;2023-03-16T07:12:46;100478.30;;;7.64;48.93
39954;BME280;25631;51.516;-0.470;2023-03-16T07:15:22;100478.53;;;7.14;49.01
39954;BME280;25631;51.516;-0.470;2023-03-16T07:17:59;100473.81;;;7.52;48.94
39954;BME280;25631;51.516;-0.470;2023-03-16T07:20:35;100478.84;;;7.26;49.07
39954;BME280;25631;51.516;-0.470;2023-03-16T07:23:12;100477.40;;;7.37;49.08
39954;BME280;25631;51.516;-0.470;2023-03-16T07:25:48;100472.57;;;7.60;49.00
39954;BME280;25631;51.516;-0.470;2023-03-16T07:28:25;100480.60;;;7.54;48.98
39954;BME280;25631;51.516;-0.470;2023-03-16T07:31:01;100472.40;;;7.33;48.94
39954;BME280;25631;51.516;-0.470;2023-03-16T07:33:38;100472.13;;;7.55;48.92
39954;BME280;25631;51.516;-0.470;2023-03-16T07:36:14;100466.71;;;7.18;49.04
39954;BME280;25631;51.516;-0.470;2023-03-16T07:38:51;100464.57;;;7.38;49.03
39954;BME280;25631;51.516;-0.470;2023-03-16T07:41:28;100466.93;;;7.27;49.07
39954;BME280;25631;51.516;-0.470;2023-03-16T07:44:04;100469.61;;;7.18;49.06
39954;BME280;25631;51.516;-0.470;2023-03-16T07:46:41;100469.95;;;7.33;48.99
39954;BME280;25631;51.516;-0.470;2023-03-16T07:49:17;100473.17;;;7.21;48.95
39954;BME280;25631;51.516;-0.470;2023-03-16T07:51:54;100477.70;;;7.11;49.00
39954;BME280;25631;51.516;-0.470;2023-03-16T07:54:30;100478.02;;;7.11;49.02
39954;BME280;25631;51.516;-0.470;2023-03-16T07:57:07;100483.98;;;7.23;49.07
39954;BME280;25631;51.516;-0.470;2023-03-16T07:59:44;100484.97;;;7.41;49.01
39954;BME280;25631;51.516;-0.470;2023-03-16T08:02:20;100482.46;;;7.22;48.98
39954;BME280;25631;51.516;-0.470;2023-03-16T08:04:57;100484.05;;;7.38;48.84
39954;BME280;25631;51.516;-0.470;2023-03-16T08:07:34;100487.59;;;7.20;48.93
39954;BME280;25631;51.516;-0.470;2023-03-16T08:10:11;100489.92;;;7.13;48.91
39954;BME280;25631;51.516;-0.470;2023-03-16T08:12:48;100493.31;;;7.36;48.87
39954;BME280;25631;51.516;-0.470;2023-03-16T08:15:24;100495.55;;;7.14;48.96
39954;BME280;25631;51.516;-0.470;2023-03-16T08:18:01;100489.01;;;7.24;49.04
39954;BME280;25631;51.516;-0.470;2023-03-16T08:20:37;100484.27;;;7.32;48.97
39954;BME280;25631;51.516;-0.470;2023-03-16T08:23:14;100479.18;;;7.23;49.08
39954;BME280;25631;51.516;-0.470;2023-03-16T08:25:51;100476.51;;;7.41;49.08
39954;BME280;25631;51.516;-0.470;2023-03-16T08:28:28;100482.25;;;7.43;49.08
39954;BME280;25631;51.516;-0.470;2023-03-16T08:31:06;100477.89;;;7.47;48.87
39954;BME280;25631;51.516;-0.470;2023-03-16T08:33:44;100480.94;;;7.40;48.82
39954;BME280;25631;51.516;-0.470;2023-03-16T08:36:21;100480.39;;;7.14;48.80
39954;BME280;25631;51.516;-0.470;2023-03-16T08:38:58;100481.21;;;7.41;48.78
39954;BME280;25631;51.516;-0.470;2023-03-16T08:41:35;100484.23;;;7.35;48.63
39954;BME280;25631;51.516;-0.470;2023-03-16T08:44:11;100486.40;;;7.66;48.50
39954;BME280;25631;51.516;-0.470;2023-03-16T08:46:48;100491.10;;;7.43;48.60
39954;BME280;25631;51.516;-0.470;2023-03-16T08:49:25;100490.04;;;7.45;48.45
39954;BME280;25631;51.516;-0.470;2023-03-16T08:52:02;100496.14;;;7.52;48.37
39954;BME280;25631;51.516;-0.470;2023-03-16T08:54:39;100493.83;;;7.36;48.40
39954;BME280;25631;51.516;-0.470;2023-03-16T08:57:15;100492.27;;;7.32;48.36
39954;BME280;25631;51.516;-0.470;2023-03-16T08:59:52;100483.61;;;7.61;48.25
39954;BME280;25631;51.516;-0.470;2023-03-16T09:02:28;100484.32;;;7.86;48.38
39954;BME280;25631;51.516;-0.470;2023-03-16T09:05:06;100474.05;;;7.61;48.39
39954;BME280;25631;51.516;-0.470;2023-03-16T09:07:43;100476.97;;;7.79;48.53
39954;BME280;25631;51.516;-0.470;2023-03-16T09:10:20;100475.32;;;7.97;48.61
39954;BME280;25631;51.516;-0.470;2023-03-16T09:12:57;100470.79;;;7.55;48.49
39954;BME280;25631;51.516;-0.470;2023-03-16T09:15:34;100475.94;;;7.31;48.46
39954;BME280;25631;51.516;-0.470;2023-03-16T09:18:10;100468.46;;;7.71;48.30
39954;BME280;25631;51.516;-0.470;2023-03-16T09:20:46;100471.75;;;7.80;48.10
39954;BME280;25631;51.516;-0.470;2023-03-16T09:23:23;100475.09;;;7.10;48.23
39954;BME280;25631;51.516;-0.470;2023-03-16T09:26:01;100474.20;;;7.33;48.13
39954;BME280;25631;51.516;-0.470;2023-03-16T09:28:39;100477.39;;;7.43;48.03
39954;BME280;25631;51.516;-0.470;2023-03-16T09:31:18;100476.91;;;7.41;48.00
39954;BME280;25631;51.516;-0.470;2023-03-16T09:33:54;100475.94;;;7.33;48.09
39954;BME280;25631;51.516;-0.470;2023-03-16T09:36:31;100479.87;;;7.66;47.90
39954;BME280;25631;51.516;-0.470;2023-03-16T09:39:07;100476.59;;;7.69;47.79
39954;BME280;25631;51.516;-0.470;2023-03-16T09:41:49;100475.79;;;7.70;47.62
39954;BME280;25631;51.516;-0.470;2023-03-16T09:44:33;100473.43;;;7.61;47.56
39954;BME280;25631;51.516;-0.470;2023-03-16T09:47:14;100473.46;;;7.40;47.66
39954;BME280;25631;51.516;-0.470;2023-03-16T09:49:51;100474.71;;;7.85;47.53
39954;BME280;25631;51.516;-0.470;2023-03-16T09:52:38;100471.74;;;7.52;47.45
39954;BME280;25631;51.516;-0.470;2023-03-16T09:55:25;100472.73;;;7.86;47.41
39954;BME280;25631;51.516;-0.470;2023-03-16T09:58:05;100473.81;;;8.00;47.30
39954;BME280;25631;51.516;-0.470;2023-03-16T10:00:53;100471.77;;;7.93;47.19
39954;BME280;25631;51.516;-0.470;2023-03-16T10:03:41;100470.25;;;8.12;47.25
39954;BME280;25631;51.516;-0.470;2023-03-16T10:06:26;100476.49;;;7.82;46.87
39954;BME280;25631;51.516;-0.470;2023-03-16T10:09:10;100472.70;;;8.03;46.77
39954;BME280;25631;51.516;-0.470;2023-03-16T10:11:53;100467.29;;;7.93;46.93
39954;BME280;25631;51.516;-0.470;2023-03-16T10:14:35;100468.41;;;8.23;46.90
39954;BME280;25631;51.516;-0.470;2023-03-16T10:17:17;100467.01;;;8.35;46.68
39954;BME280;25631;51.516;-0.470;2023-03-16T10:20:02;100469.87;;;8.50;46.36
39954;BME280;25631;51.516;-0.470;2023-03-16T10:22:43;100466.28;;;8.55;46.49
39954;BME280;25631;51.516;-0.470;2023-03-16T10:25:22;100458.78;;;8.76;46.47
39954;BME280;25631;51.516;-0.470;2023-03-16T10:28:01;100451.46;;;8.70;45.98
39954;BME280;25631;51.516;-0.470;2023-03-16T10:30:37;100447.37;;;8.60;45.84
39954;BME280;25631;51.516;-0.470;2023-03-16T10:33:21;100442.19;;;8.71;45.68
39954;BME280;25631;51.516;-0.470;2023-03-16T10:36:01;100439.52;;;9.05;45.94
39954;BME280;25631;51.516;-0.470;2023-03-16T10:38:41;100441.44;;;9.36;45.79
39954;BME280;25631;51.516;-0.470;2023-03-16T10:41:22;100439.87;;;9.00;45.25
39954;BME280;25631;51.516;-0.470;2023-03-16T10:44:02;100435.98;;;9.22;44.98
39954;BME280;25631;51.516;-0.470;2023-03-16T10:46:40;100438.02;;;8.73;44.15
39954;BME280;25631;51.516;-0.470;2023-03-16T10:49:21;100428.68;;;9.29;43.79
39954;BME280;25631;51.516;-0.470;2023-03-16T10:51:59;100419.91;;;9.47;43.77
39954;BME280;25631;51.516;-0.470;2023-03-16T10:54:47;100417.01;;;9.79;43.79
39954;BME280;25631;51.516;-0.470;2023-03-16T10:57:29;100416.40;;;9.50;43.29
39954;BME280;25631;51.516;-0.470;2023-03-16T11:00:11;100411.69;;;9.63;43.45
39954;BME280;25631;51.516;-0.470;2023-03-16T11:02:50;100404.94;;;9.20;42.97
39954;BME280;25631;51.516;-0.470;2023-03-16T11:05:30;100397.11;;;9.95;42.85
39954;BME280;25631;51.516;-0.470;2023-03-16T11:08:12;100394.01;;;9.90;42.35
39954;BME280;25631;51.516;-0.470;2023-03-16T11:10:54;100382.19;;;10.50;41.86
39954;BME280;25631;51.516;-0.470;2023-03-16T11:13:33;100381.01;;;10.18;41.71
39954;BME280;25631;51.516;-0.470;2023-03-16T11:16:22;100373.19;;;10.03;40.99
39954;BME280;25631;51.516;-0.470;2023-03-16T11:19:02;100377.10;;;10.16;40.83
39954;BME280;25631;51.516;-0.470;2023-03-16T11:21:43;100380.49;;;10.45;40.71
39954;BME280;25631;51.516;-0.470;2023-03-16T11:24:26;100376.69;;;10.14;40.69
39954;BME280;25631;51.516;-0.470;2023-03-16T11:27:14;100369.44;;;9.85;40.47
39954;BME280;25631;51.516;-0.470;2023-03-16T11:30:01;100367.79;;;10.22;40.63
39954;BME280;25631;51.516;-0.470;2023-03-16T11:32:42;100372.02;;;10.27;39.98
39954;BME280;25631;51.516;-0.470;2023-03-16T11:35:26;100364.50;;;10.16;39.88
39954;BME280;25631;51.516;-0.470;2023-03-16T11:38:12;100364.20;;;10.40;39.62
39954;BME280;25631;51.516;-0.470;2023-03-16T11:40:56;100357.39;;;10.44;39.01
39954;BME280;25631;51.516;-0.470;2023-03-16T11:43:52;100351.06;;;10.55;39.51
39954;BME280;25631;51.516;-0.470;2023-03-16T11:46:35;100352.44;;;10.34;39.34
39954;BME280;25631;51.516;-0.470;2023-03-16T11:49:31;100353.22;;;10.41;39.89
39954;BME280;25631;51.516;-0.470;2023-03-16T11:52:17;100355.40;;;10.47;40.03
39954;BME280;25631;51.516;-0.470;2023-03-16T11:55:09;100357.87;;;10.74;39.97
39954;BME280;25631;51.516;-0.470;2023-03-16T11:58:02;100360.40;;;10.41;39.85
39954;BME280;25631;51.516;-0.470;2023-03-16T12:00:48;100364.96;;;10.42;39.95
39954;BME280;25631;51.516;-0.470;2023-03-16T12:03:38;100357.26;;;10.44;39.78
39954;BME280;25631;51.516;-0.470;2023-03-16T12:06:27;100362.24;;;10.39;39.80
39954;BME280;25631;51.516;-0.470;2023-03-16T12:09:23;100369.67;;;10.40;39.56
39954;BME280;25631;51.516;-0.470;2023-03-16T12:12:08;100363.26;;;10.69;39.61
39954;BME280;25631;51.516;-0.470;2023-03-16T12:14:57;100354.70;;;10.86;39.42
39954;BME280;25631;51.516;-0.470;2023-03-16T12:17:38;100343.48;;;10.79;38.77
39954;BME280;25631;51.516;-0.470;2023-03-16T12:20:18;100352.23;;;10.73;38.68
39954;BME280;25631;51.516;-0.470;2023-03-16T12:22:59;100359.54;;;10.39;38.84
39954;BME280;25631;51.516;-0.470;2023-03-16T12:25:41;100357.11;;;10.47;38.75
39954;BME280;25631;51.516;-0.470;2023-03-16T12:28:22;100358.37;;;10.46;39.17
39954;BME280;25631;51.516;-0.470;2023-03-16T12:31:06;100355.86;;;10.22;39.29
39954;BME280;25631;51.516;-0.470;2023-03-16T12:33:53;100350.01;;;10.34;38.83
39954;BME280;25631;51.516;-0.470;2023-03-16T12:36:52;100338.32;;;10.24;39.31
39954;BME280;25631;51.516;-0.470;2023-03-16T12:39:44;100338.99;;;10.73;39.05
39954;BME280;25631;51.516;-0.470;2023-03-16T12:42:36;100337.40;;;10.81;39.24
39954;BME280;25631;51.516;-0.470;2023-03-16T12:45:22;100340.48;;;10.54;39.05
39954;BME280;25631;51.516;-0.470;2023-03-16T12:48:09;100323.94;;;10.32;39.20
39954;BME280;25631;51.516;-0.470;2023-03-16T12:50:51;100315.70;;;10.41;39.41
39954;BME280;25631;51.516;-0.470;2023-03-16T12:53:39;100302.68;;;10.64;39.21
39954;BME280;25631;51.516;-0.470;2023-03-16T12:56:18;100302.82;;;10.76;39.58
39954;BME280;25631;51.516;-0.470;2023-03-16T12:58:57;100291.68;;;10.65;39.46
39954;BME280;25631;51.516;-0.470;2023-03-16T13:01:39;100296.77;;;10.71;39.85
39954;BME280;25631;51.516;-0.470;2023-03-16T13:04:19;100291.82;;;11.18;39.59
39954;BME280;25631;51.516;-0.470;2023-03-16T13:07:01;100293.26;;;11.50;39.31
39954;BME280;25631;51.516;-0.470;2023-03-16T13:09:43;100284.31;;;11.67;39.08
39954;BME280;25631;51.516;-0.470;2023-03-16T13:12:23;100290.76;;;11.94;39.34
39954;BME280;25631;51.516;-0.470;2023-03-16T13:15:02;100286.32;;;12.06;38.16
39954;BME280;25631;51.516;-0.470;2023-03-16T13:18:03;100293.06;;;11.78;37.53
39954;BME280;25631;51.516;-0.470;2023-03-16T13:20:55;100283.80;;;11.78;37.54
39954;BME280;25631;51.516;-0.470;2023-03-16T13:23:50;100279.77;;;11.70;37.47
39954;BME280;25631;51.516;-0.470;2023-03-16T13:26:37;100283.21;;;11.92;37.40
39954;BME280;25631;51.516;-0.470;2023-03-16T13:29:21;100283.28;;;11.51;37.21
39954;BME280;25631;51.516;-0.470;2023-03-16T13:31:59;100271.84;;;11.98;37.49
39954;BME280;25631;51.516;-0.470;2023-03-16T13:34:45;100257.10;;;11.57;37.12
39954;BME280;25631;51.516;-0.470;2023-03-16T13:37:23;100239.34;;;11.70;36.96
39954;BME280;25631;51.516;-0.470;2023-03-16T13:40:01;100236.38;;;12.05;37.49
39954;BME280;25631;51.516;-0.470;2023-03-16T13:42:38;100235.28;;;12.26;37.03
39954;BME280;25631;51.516;-0.470;2023-03-16T13:45:20;100228.34;;;12.10;36.71
39954;BME280;25631;51.516;-0.470;2023-03-16T13:47:59;100226.16;;;12.02;36.24